Latest Weather Observations for Tatura

IDV60801

Issued at 7:31 am EST Wednesday 8 July 2015 (issued every 30 minutes, with the page automatically refreshed every 10 minutes)

About weather observations | Map of weather stations | Latest weather observations for VIC | Other Formats
Station Details ID: 081049 Name: TATURA INST SUSTAINABLE AG Lat: -36.44 Lon: 145.27 Height: 114.0 m
Data from the previous 72 hours. | See also: Recent months at Tatura
Date/Time
EST
Temp
°C
App
Temp
°C
Dew
Point
Rel
Hum
%
Delta-T
°C
Wind Press
QNH
hPa
Press
MSL
hPa
Rain
since 9 am
mm
Dir
 
Spd
km/h
Gust
km/h
Spd
kts
Gust
kts
08/07:30am -1.6 -5.0 -1.7 99 0.0 - 6 6 3 3 - - 0.0
08/07:00am -1.7 -3.9 -1.8 99 0.0 CALM 0 0 0 0 - - 0.0
08/06:30am -1.8 -4.1 -2.1 98 0.0 CALM 0 0 0 0 - - 0.0
08/06:00am -1.6 -3.8 -1.7 99 0.0 CALM 0 6 0 3 - - 0.0
08/05:30am -1.4 -3.6 -1.7 98 0.0 CALM 0 0 0 0 - - 0.0
08/05:00am -0.9 -3.4 -1.0 99 0.0 - 2 6 1 3 - - 0.0
08/04:30am -0.6 -2.7 -0.7 99 0.0 CALM 0 0 0 0 - - 0.0
08/04:00am -0.5 -2.6 -0.6 99 0.0 CALM 0 0 0 0 - - 0.0
08/03:30am -0.8 -2.9 -1.1 98 0.1 CALM 0 0 0 0 - - 0.0
08/03:00am -0.2 -2.2 -0.3 99 0.0 CALM 0 0 0 0 - - 0.0
08/02:30am -0.5 -2.6 -0.8 98 0.1 CALM 0 0 0 0 - - 0.0
08/02:00am -1.1 -4.0 -1.4 98 0.1 - 4 9 2 5 - - 0.0
08/01:30am 0.0 -2.0 -0.3 98 0.1 CALM 0 0 0 0 - - 0.0
08/01:00am 0.4 -1.6 0.1 98 0.1 CALM 0 0 0 0 - - 0.0
08/12:30am 0.3 -1.7 0.0 98 0.1 CALM 0 0 0 0 - - 0.0
08/12:00am 1.1 -1.1 0.8 98 0.1 - 2 6 1 3 - - 0.0
 
Date/Time
EST
Temp
°C
App
Temp
°C
Dew
Point
Rel
Hum
%
Delta-T
°C
Wind Press
QNH
hPa
Press
MSL
hPa
Rain
since 9 am
mm
Dir
 
Spd
km/h
Gust
km/h
Spd
kts
Gust
kts
07/11:30pm 1.6 -1.5 1.3 98 0.1 - 7 9 4 5 - - 0.0
07/11:00pm 1.4 -0.8 1.1 98 0.1 - 2 7 1 4 - - 0.0
07/10:30pm 1.8 0.0 1.5 98 0.1 CALM 0 0 0 0 - - 0.0
07/10:00pm 1.7 -0.1 1.3 97 0.2 CALM 0 0 0 0 - - 0.0
07/09:30pm 2.3 0.6 1.9 97 0.2 CALM 0 0 0 0 - - 0.0
07/09:00pm 2.3 0.6 1.7 96 0.2 CALM 0 0 0 0 - - 0.0
07/08:30pm 3.0 1.4 2.4 96 0.2 CALM 0 0 0 0 - - 0.0
07/08:00pm 3.8 2.3 2.9 94 0.4 CALM 0 0 0 0 - - 0.0
07/07:30pm 4.3 2.8 3.1 92 0.5 CALM 0 0 0 0 - - 0.0
07/07:00pm 5.6 4.4 4.6 93 0.4 CALM 0 0 0 0 - - 0.0
07/06:30pm 6.3 5.0 4.3 87 0.9 CALM 0 0 0 0 - - 0.0
07/06:00pm 7.7 6.5 4.5 80 1.4 CALM 0 0 0 0 - - 0.0
07/05:30pm 9.7 8.6 5.1 73 2.1 CALM 0 0 0 0 - - 0.0
07/05:00pm 12.5 11.5 5.7 63 3.2 CALM 0 0 0 0 - - 0.0
07/04:30pm 13.4 12.4 5.8 60 3.6 CALM 0 0 0 0 - - 0.0
07/04:00pm 13.5 11.4 5.7 59 3.7 - 6 9 3 5 - - 0.0
07/03:30pm 13.6 11.8 5.5 58 3.8 - 4 9 2 5 - - 0.0
07/03:00pm 13.8 11.6 6.4 61 3.6 - 7 11 4 6 - - 0.0
07/02:30pm 14.2 12.6 6.3 59 3.8 - 4 7 2 4 - - 0.0
07/02:00pm 13.6 11.9 5.7 59 3.7 - 4 9 2 5 - - 0.0
07/01:30pm 12.6 10.4 6.0 64 3.1 - 7 11 4 6 - - 0.0
07/01:00pm 12.3 10.4 6.8 69 2.6 - 6 9 3 5 - - 0.0
07/12:30pm 11.4 9.3 5.7 68 2.7 - 6 11 3 6 - - 0.0
07/12:00pm 11.5 9.3 6.0 69 2.6 - 7 11 4 6 - - 0.0
07/11:30am 11.3 9.2 6.8 74 2.1 - 7 11 4 6 - - 0.0
07/11:00am 10.4 8.8 6.2 75 2.0 - 4 9 2 5 - - 0.0
07/10:30am 9.8 7.8 6.2 78 1.7 - 6 9 3 5 - - 0.0
07/10:00am 8.4 7.6 6.5 88 0.9 CALM 0 0 0 0 - - 0.0
07/09:30am 6.9 6.1 6.6 98 0.1 CALM 0 0 0 0 - - 0.0
07/09:00am 4.6 3.4 4.5 99 0.0 CALM 0 0 0 0 - - 0.6
07/08:30am 1.9 0.2 1.8 99 0.0 CALM 0 0 0 0 - - 0.6
07/08:00am 0.0 -2.0 -0.3 98 0.1 CALM 0 0 0 0 - - 0.6
07/07:30am 0.7 -1.2 0.4 98 0.1 CALM 0 0 0 0 - - 0.6
07/07:00am 0.8 -1.1 0.4 97 0.1 CALM 0 0 0 0 - - 0.6
07/06:30am 1.9 -1.0 1.6 98 0.1 - 6 7 3 4 - - 0.6
07/06:00am 2.7 0.3 2.4 98 0.1 - 4 9 2 5 - - 0.6
07/05:30am 1.7 -0.9 1.1 96 0.2 - 4 7 2 4 - - 0.6
07/05:00am 4.0 1.3 3.6 97 0.2 - 7 9 4 5 - - 0.6
07/04:30am 4.2 1.5 3.6 96 0.2 - 7 9 4 5 - - 0.6
07/04:00am 5.0 3.7 4.3 95 0.3 CALM 0 4 0 2 - - 0.6
07/03:30am 5.3 2.9 4.1 92 0.5 - 6 9 3 5 - - 0.6
07/03:00am 5.9 3.4 4.5 91 0.6 - 7 9 4 5 - - 0.6
07/02:30am 6.0 3.1 4.6 91 0.6 - 9 11 5 6 - - 0.6
07/02:00am 6.2 3.3 4.8 91 0.6 - 9 13 5 7 - - 0.6
07/01:30am 6.4 3.2 5.0 91 0.6 - 11 13 6 7 - - 0.6
07/01:00am 6.2 3.4 5.2 93 0.4 - 9 13 5 7 - - 0.6
07/12:30am 5.7 3.2 5.0 95 0.3 - 7 9 4 5 - - 0.6
07/12:00am 5.2 2.7 4.6 96 0.3 - 7 9 4 5 - - 0.6
 
Date/Time
EST
Temp
°C
App
Temp
°C
Dew
Point
Rel
Hum
%
Delta-T
°C
Wind Press
QNH
hPa
Press
MSL
hPa
Rain
since 9 am
mm
Dir
 
Spd
km/h
Gust
km/h
Spd
kts
Gust
kts
06/11:30pm 4.9 1.9 4.0 94 0.4 - 9 11 5 6 - - 0.6
06/11:00pm 5.5 2.6 4.5 93 0.4 - 9 13 5 7 - - 0.6
06/10:30pm 6.1 3.2 4.9 92 0.5 - 9 13 5 7 - - 0.6
06/10:00pm 6.3 3.9 5.3 93 0.4 - 7 11 4 6 - - 0.6
06/09:30pm 6.2 3.4 5.3 94 0.4 - 9 11 5 6 - - 0.6
06/09:00pm 5.9 3.5 5.3 96 0.3 - 7 9 4 5 - - 0.6
06/08:30pm 5.7 3.2 5.0 95 0.3 - 7 11 4 6 - - 0.6
06/08:00pm 6.0 3.2 5.1 94 0.4 - 9 11 5 6 - - 0.6
06/07:30pm 6.4 3.7 5.4 93 0.4 - 9 11 5 6 - - 0.6
06/07:00pm 7.2 5.1 5.8 91 0.6 - 6 9 3 5 - - 0.6
06/06:30pm 7.6 5.4 6.4 92 0.6 - 7 9 4 5 - - 0.6
06/06:00pm 7.9 6.3 6.4 90 0.7 - 4 7 2 4 - - 0.6
06/05:30pm 8.2 5.6 6.3 88 0.9 - 9 13 5 7 - - 0.6
06/05:00pm 8.2 5.3 6.3 88 0.9 - 11 17 6 9 - - 0.6
06/04:30pm 8.5 5.9 6.0 84 1.1 - 9 13 5 7 - - 0.4
06/04:00pm 9.1 5.1 5.1 76 1.8 - 15 20 8 11 - - 0.0
06/03:30pm 9.4 4.9 4.4 71 2.2 - 17 20 9 11 - - 0.0
06/03:00pm 9.8 5.7 4.4 69 2.4 - 15 20 8 11 - - 0.0
06/02:30pm 9.9 5.8 4.3 68 2.5 - 15 20 8 11 - - 0.0
06/02:00pm 10.0 6.4 5.2 72 2.2 - 13 19 7 10 - - 0.0
06/01:30pm 9.4 5.8 4.8 73 2.1 - 13 17 7 9 - - 0.0
06/01:00pm 9.4 5.4 5.0 74 2.0 - 15 20 8 11 - - 0.0
06/12:30pm 8.9 5.2 4.5 74 2.0 - 13 19 7 10 - - 0.0
06/12:00pm 8.6 4.9 4.6 76 1.8 - 13 17 7 9 - - 0.0
06/11:30am 8.0 4.4 4.8 80 1.4 - 13 17 7 9 - - 0.0
06/11:00am 7.1 4.2 4.6 84 1.1 - 9 13 5 7 - - 0.0
06/10:30am 6.3 3.9 4.1 86 0.9 - 6 11 3 6 - - 0.0
06/10:00am 5.7 2.3 4.0 89 0.7 - 11 15 6 8 - - 0.0
06/09:30am 5.3 2.7 4.0 91 0.6 - 7 9 4 5 - - 0.0
06/09:00am 4.9 2.2 3.7 92 0.5 - 7 11 4 6 - - 0.0
06/08:30am 4.5 1.8 3.5 93 0.4 - 7 9 4 5 - - 0.0
06/08:00am 4.0 0.8 3.1 94 0.4 - 9 13 5 7 - - 0.0
06/07:30am 3.3 1.0 2.9 97 0.2 - 4 9 2 5 - - 0.0
06/07:00am 2.9 1.3 2.5 97 0.2 CALM 0 0 0 0 - - 0.0
06/06:30am 2.4 0.7 2.0 97 0.2 CALM 0 0 0 0 - - 0.0
06/06:00am 2.5 0.8 1.9 96 0.2 CALM 0 0 0 0 - - 0.0
06/05:30am 2.8 -0.5 2.4 97 0.2 - 9 13 5 7 - - 0.0
06/05:00am 1.9 -1.5 1.6 98 0.1 - 9 11 5 6 - - 0.0
06/04:30am 0.7 -1.2 0.3 97 0.1 CALM 0 0 0 0 - - 0.0
06/04:00am 0.6 -1.4 0.2 97 0.1 CALM 0 0 0 0 - - 0.0
06/03:30am 0.6 -1.4 0.2 97 0.1 CALM 0 0 0 0 - - 0.0
06/03:00am 0.6 -2.1 0.2 97 0.1 - 4 7 2 4 - - 0.0
06/02:30am -0.2 -2.3 -0.9 95 0.2 CALM 0 6 0 3 - - 0.0
06/02:00am 1.1 -2.2 0.4 95 0.3 - 7 9 4 5 - - 0.0
06/01:30am 1.8 -1.7 1.4 97 0.2 - 9 11 5 6 - - 0.0
06/01:00am 1.3 -1.9 0.9 97 0.2 - 7 9 4 5 - - 0.0
06/12:30am 0.9 -2.4 0.3 96 0.2 - 7 9 4 5 - - 0.0
06/12:00am 1.4 -1.7 1.1 98 0.1 - 7 9 4 5 - - 0.0
 
Date/Time
EST
Temp
°C
App
Temp
°C
Dew
Point
Rel
Hum
%
Delta-T
°C
Wind Press
QNH
hPa
Press
MSL
hPa
Rain
since 9 am
mm
Dir
 
Spd
km/h
Gust
km/h
Spd
kts
Gust
kts
05/11:30pm 0.7 -2.0 0.1 96 0.2 - 4 6 2 3 - - 0.0
05/11:00pm 0.8 -2.5 0.2 96 0.2 - 7 9 4 5 - - 0.0
05/10:30pm 1.3 -1.9 0.6 95 0.3 - 7 7 4 4 - - 0.0
05/10:00pm 1.9 -1.2 1.2 95 0.3 - 7 9 4 5 - - 0.0
05/09:30pm 1.0 -2.3 0.1 94 0.3 - 7 9 4 5 - - 0.0
05/09:00pm 1.8 -0.1 0.8 93 0.4 CALM 0 0 0 0 - - 0.0
05/08:30pm 2.6 0.9 1.6 93 0.4 CALM 0 0 0 0 - - 0.0
05/08:00pm 3.2 1.5 1.7 90 0.6 CALM 0 0 0 0 - - 0.0
05/07:30pm 4.1 2.4 2.0 86 0.8 CALM 0 0 0 0 - - 0.0
05/07:00pm 4.7 2.2 1.7 81 1.2 - 4 6 2 3 - - 0.0
05/06:30pm 7.1 4.2 2.6 73 1.9 - 7 9 4 5 - - 0.0
05/06:00pm 8.3 5.1 3.0 69 2.3 - 9 9 5 5 - - 0.0
05/05:30pm 9.3 7.4 2.9 64 2.8 - 2 9 1 5 - - 0.0
05/05:00pm 10.6 8.3 2.9 59 3.3 - 4 6 2 3 - - 0.0
05/04:30pm 11.7 10.2 3.2 56 3.8 CALM 0 0 0 0 - - 0.0
05/04:00pm 11.1 8.3 3.2 58 3.5 - 7 9 4 5 - - 0.0
05/03:30pm 11.9 8.3 2.9 54 4.0 - 11 17 6 9 - - 0.0
05/03:00pm 11.9 7.9 2.9 54 4.0 - 13 19 7 10 - - 0.0
05/02:30pm 12.6 9.0 2.7 51 4.4 - 11 15 6 8 - - 0.0
05/02:00pm 12.2 8.2 2.9 53 4.1 - 13 20 7 11 - - 0.0
05/01:30pm 12.3 8.4 3.3 54 4.0 - 13 19 7 10 - - 0.0
05/01:00pm 11.4 6.7 3.4 58 3.5 - 17 22 9 12 - - 0.0
05/12:30pm 11.3 7.1 3.6 59 3.4 - 15 22 8 12 - - 0.0
05/12:00pm 11.6 8.2 4.1 60 3.4 - 11 17 6 9 - - 0.0
05/11:30am 10.3 6.4 3.6 63 3.0 - 13 19 7 10 - - 0.0
05/11:00am 9.9 6.8 3.4 64 2.8 - 9 13 5 7 - - 0.0
05/10:30am 8.3 5.2 3.8 73 2.0 - 9 13 5 7 - - 0.0
05/10:00am 7.3 4.5 3.0 74 1.8 - 7 9 4 5 - - 0.0
05/09:30am 6.2 3.4 3.0 80 1.3 - 7 9 4 5 - - 0.0
05/09:00am 5.6 2.7 2.8 82 1.2 - 7 9 4 5 - - 0.0
05/08:30am 5.2 2.6 3.1 86 0.9 - 6 7 3 4 - - 0.0
05/08:00am 4.8 2.0 3.0 88 0.7 - 7 9 4 5 - - 0.0

Other Formats:

Comma delimited format used in spreadsheet applications
http://www.bom.gov.au/fwo/IDV60801/IDV60801.95836.axf

JavaScript Object Notation format (JSON) in row-major order
http://www.bom.gov.au/fwo/IDV60801/IDV60801.95836.json